Hauptseite
METAR-TAF:

METAR-TAF

Flughäfen :

Fliegerhorst Hinterstoisser

Zeltweg, Österreich

Breite: 47-12N, Länge: 014-45E, Höhe: 677 m

Beobachtung

Neuester Wetterbericht von vor 23 Minuten, um 09:50 UTC
Wind 1 kt aus unterschiedlichen Richtungen
Temperatur 16°C
Luftfeuchtigkeit 77%
Luftdruck 1023 hPa

METAR: LOXZ 280950Z VRB01KT 20KM SCT050SC BKN070SC 16/12 Q1023 NOSIG

Zeit: 12:13 (10:13 UTC)

Prognose

Neuester Wetterbericht von vor 1 Stunde und 58 Minuten, um 08:15 UTC
Gültige Prognose vom 28 um 09 UTC bis 28 um 18 UTC
Wind 3 kt aus unterschiedlichen Richtungen
Sichtweite 10 km oder mehr
Leicht bewölkt in der Höhe von 6000 ft
Durchbrochene Bewölkung in der Höhe von 7000 ft
Zeitweise
vom 28 um 10 UTC bis 28 um 18 UTC
Wind 8 kt aus Ost/Nordost
Aufgelockert bewölkt in der Höhe von 8000 ft

TAF: LOXZ 280815Z 2809/2818 VRB03KT 9999 FEW060 BKN070 TEMPO 2810/2818 07008KT SCT080

Wetterbeobachtungen und Prognosen von mehr als 4000 Flughäfen (METAR und TAF Bericht).

Die verfügbaren Stationen werden durch gelbe und rote Markierungen auf der Karte dargestellt.

Führen Sie die Maus auf sie, um den Namen der Station zu sehen.

Darauf klicken, um die Beobachtung von Wetterbeobachtungen und Prognosen zu sehen.

Um die Karte zu ändern : klicken Sie auf den grünen Tasten mit einem schwarzen Kreuz Zum Vergrößern, auf den grünen Button mit einem Gedankenstrich zu verkleinern, oder auf die grünen Pfeile für benachbarte Karten.


METAR-TAF: